Time;durP1;ratioP1;P1;durP2;ratioP2;P2;SDS_P1;SDS_P2;PMS_P1;PMS_P2;Temp;Humidity;BMP_temperature;BMP_pressure;BME280_temperature;BME280_humidity;BME280_pressure;Samples;Min_cycle;Max_cycle;Signal;HPM_P1;HPM_P2
2022/03/18 00:02:08;;;;;;;39.15;23.10;;;9.90;97.10;;;;;;5014755;28;20045;-69
2022/03/18 00:04:34;;;;;;;38.92;21.88;;;9.90;97.30;;;;;;5026052;28;20049;-70
2022/03/18 00:07:00;;;;;;;42.40;21.85;;;9.90;97.10;;;;;;5024132;28;20457;-69
2022/03/18 00:09:25;;;;;;;44.08;23.00;;;9.90;97.00;;;;;;5026798;28;20025;-70
2022/03/18 00:11:51;;;;;;;37.88;22.05;;;9.80;97.10;;;;;;5024118;28;20423;-69
2022/03/18 00:14:19;;;;;;;40.35;22.52;;;9.80;97.10;;;;;;5023235;28;20049;-69
2022/03/18 00:16:45;;;;;;;45.35;22.73;;;9.70;97.40;;;;;;5023844;28;20163;-70
2022/03/18 00:19:11;;;;;;;39.92;23.45;;;9.70;97.30;;;;;;5027454;28;20115;-69
2022/03/18 00:21:37;;;;;;;42.03;22.75;;;9.70;97.40;;;;;;5024945;28;20112;-69
2022/03/18 00:24:03;;;;;;;45.42;24.70;;;9.80;97.60;;;;;;5027979;28;20021;-69
2022/03/18 00:26:30;;;;;;;45.80;26.48;;;9.80;97.60;;;;;;5021717;28;20571;-69
2022/03/18 00:28:56;;;;;;;54.47;31.15;;;9.70;97.90;;;;;;5022628;28;20042;-69
2022/03/18 00:31:22;;;;;;;44.50;28.00;;;9.70;98.20;;;;;;5025946;28;20043;-69
2022/03/18 00:33:47;;;;;;;44.58;24.88;;;9.60;97.80;;;;;;5025381;28;20068;-69
2022/03/18 00:36:13;;;;;;;45.40;24.95;;;9.60;97.70;;;;;;5020597;28;20025;-69
2022/03/18 00:38:39;;;;;;;40.38;23.25;;;9.40;97.80;;;;;;5030773;28;20021;-70
2022/03/18 00:41:05;;;;;;;42.17;24.20;;;9.40;97.50;;;;;;5027780;28;20132;-69
2022/03/18 00:43:31;;;;;;;47.60;26.90;;;9.50;97.60;;;;;;5030734;28;20099;-70
2022/03/18 00:45:56;;;;;;;48.45;23.13;;;9.60;97.80;;;;;;5022855;28;20064;-69
2022/03/18 00:53:52;;;;;;;35.58;19.48;;;9.50;96.70;;;;;;5026366;28;20059;-69
2022/03/18 00:56:17;;;;;;;44.45;21.60;;;9.60;96.50;;;;;;5025668;28;20034;-70
2022/03/18 00:58:43;;;;;;;30.13;16.38;;;9.50;97.00;;;;;;5030363;28;20096;-69
2022/03/18 01:01:09;;;;;;;37.00;15.60;;;9.40;96.30;;;;;;5026095;28;20108;-70
2022/03/18 01:03:35;;;;;;;24.55;14.77;;;9.50;95.70;;;;;;5029444;28;20116;-69
2022/03/18 01:06:01;;;;;;;29.25;15.45;;;9.50;95.50;;;;;;5021628;28;20104;-69
2022/03/18 01:08:27;;;;;;;26.80;14.85;;;9.50;95.20;;;;;;5024703;28;20033;-70
2022/03/18 01:10:53;;;;;;;29.60;15.95;;;9.50;95.10;;;;;;5031578;28;20387;-69
2022/03/18 01:13:20;;;;;;;31.75;16.70;;;9.50;95.10;;;;;;5028999;28;20043;-70
2022/03/18 01:15:45;;;;;;;34.35;19.17;;;9.60;95.20;;;;;;5029631;28;20040;-69
2022/03/18 01:18:11;;;;;;;48.90;25.60;;;9.70;95.60;;;;;;5028115;28;20029;-69
2022/03/18 01:20:37;;;;;;;39.97;23.42;;;9.70;96.50;;;;;;5031759;28;20498;-69
2022/03/18 01:23:06;;;;;;;41.42;21.73;;;9.70;96.50;;;;;;5027411;28;20108;-69
2022/03/18 01:25:32;;;;;;;40.08;23.00;;;9.70;96.60;;;;;;5028502;28;20037;-69
2022/03/18 01:27:58;;;;;;;38.33;22.60;;;9.60;96.60;;;;;;5023696;28;20029;-70
2022/03/18 01:30:24;;;;;;;43.53;23.15;;;9.60;96.50;;;;;;5031535;28;20080;-69
2022/03/18 01:32:50;;;;;;;37.10;22.60;;;9.60;96.70;;;;;;5027365;28;20175;-70
2022/03/18 01:35:15;;;;;;;42.90;23.98;;;9.60;96.50;;;;;;5031117;28;20026;-69
2022/03/18 01:37:41;;;;;;;41.00;24.08;;;9.60;96.60;;;;;;5026071;28;20116;-69
2022/03/18 01:40:07;;;;;;;45.72;26.02;;;9.60;96.80;;;;;;5023362;28;20052;-69
2022/03/18 01:42:33;;;;;;;45.53;23.77;;;9.60;97.20;;;;;;5027587;28;20029;-69
2022/03/18 01:44:58;;;;;;;43.58;23.38;;;9.60;97.30;;;;;;5026433;28;20078;-69
2022/03/18 01:47:24;;;;;;;45.10;23.38;;;9.60;97.50;;;;;;5023313;28;20096;-69
2022/03/18 01:49:50;;;;;;;34.08;18.77;;;9.50;97.10;;;;;;5027227;28;20522;-69
2022/03/18 01:52:15;;;;;;;32.20;18.15;;;9.60;96.40;;;;;;5029861;28;20494;-69
2022/03/18 01:54:44;;;;;;;32.95;17.35;;;9.60;96.40;;;;;;5025103;28;20048;-69
2022/03/18 01:57:12;;;;;;;35.35;19.75;;;9.50;96.10;;;;;;5030583;28;20045;-69
2022/03/18 01:59:38;;;;;;;43.95;24.30;;;9.50;96.10;;;;;;5025419;28;20065;-69
2022/03/18 02:02:04;;;;;;;44.20;24.90;;;9.50;97.20;;;;;;5030385;28;20050;-69
2022/03/18 02:04:32;;;;;;;55.92;25.98;;;9.50;97.50;;;;;;5026073;28;20022;-70
2022/03/18 02:06:59;;;;;;;53.28;31.55;;;9.70;97.30;;;;;;5022926;28;20083;-69
2022/03/18 02:09:25;;;;;;;43.50;24.13;;;9.90;98.20;;;;;;5023065;28;20036;-70
2022/03/18 02:11:51;;;;;;;37.83;20.05;;;9.80;96.80;;;;;;5027011;28;20558;-69
2022/03/18 02:14:49;;;;;;;37.55;19.58;;;9.70;95.90;;;;;;5028483;28;20025;-69
2022/03/18 02:17:17;;;;;;;43.53;24.98;;;9.80;95.70;;;;;;5016933;28;20046;-69
2022/03/18 02:19:44;;;;;;;48.53;28.40;;;9.90;96.80;;;;;;5024225;28;20038;-69
2022/03/18 02:22:13;;;;;;;43.83;25.85;;;10.00;97.20;;;;;;5030317;28;20056;-69
2022/03/18 02:24:43;;;;;;;45.22;25.08;;;9.90;97.00;;;;;;5027139;28;20060;-70
2022/03/18 02:27:09;;;;;;;52.08;27.00;;;9.90;97.10;;;;;;5031156;28;20065;-69
2022/03/18 02:29:36;;;;;;;39.58;20.55;;;9.90;97.50;;;;;;5027447;28;20037;-69
2022/03/18 02:32:03;;;;;;;42.28;21.70;;;9.80;96.30;;;;;;5031208;28;20049;-69
2022/03/18 02:34:29;;;;;;;40.13;20.48;;;9.80;96.40;;;;;;5027704;28;20029;-69
2022/03/18 02:36:55;;;;;;;45.13;19.55;;;9.70;96.40;;;;;;5026730;28;20040;-69
2022/03/18 02:39:21;;;;;;;29.00;17.17;;;9.70;96.20;;;;;;5023630;28;20379;-69
2022/03/18 02:41:47;;;;;;;32.15;16.38;;;9.80;96.30;;;;;;5019324;28;20034;-70
2022/03/18 02:44:13;;;;;;;29.20;17.52;;;9.80;95.60;;;;;;5021551;28;20459;-69
2022/03/18 02:46:39;;;;;;;29.40;17.20;;;9.70;95.30;;;;;;5025834;28;20075;-70
2022/03/18 02:49:05;;;;;;;32.08;16.80;;;9.70;95.60;;;;;;5018395;28;20025;-69
2022/03/18 02:51:32;;;;;;;31.80;17.90;;;9.70;95.90;;;;;;5026077;28;20116;-69
2022/03/18 02:53:59;;;;;;;33.35;18.15;;;9.70;95.80;;;;;;5020173;28;20037;-69
2022/03/18 02:56:25;;;;;;;41.88;21.52;;;9.70;96.00;;;;;;5026077;28;20052;-69
2022/03/18 02:58:51;;;;;;;47.42;26.10;;;9.70;96.50;;;;;;5028538;28;20033;-70
2022/03/18 03:01:17;;;;;;;45.15;25.77;;;9.60;97.10;;;;;;5025716;28;20073;-69
2022/03/18 03:03:43;;;;;;;48.45;23.10;;;9.60;97.20;;;;;;5018327;28;20657;-69
2022/03/18 03:08:53;;;;;;;44.60;21.20;;;9.60;96.30;;;;;;5025288;28;20080;-69
2022/03/18 03:11:22;;;;;;;34.63;22.25;;;9.60;96.80;;;;;;5028320;28;20021;-69
2022/03/18 03:13:49;;;;;;;36.83;21.17;;;9.60;96.80;;;;;;5028621;28;20503;-69
2022/03/18 03:16:15;;;;;;;33.88;20.15;;;9.60;97.00;;;;;;5023366;28;20046;-69
2022/03/18 03:18:40;;;;;;;38.95;21.23;;;9.60;96.90;;;;;;5019944;28;20506;-69
2022/03/18 03:21:06;;;;;;;35.42;20.88;;;9.50;97.20;;;;;;5018412;28;20549;-69
2022/03/18 03:23:32;;;;;;;35.35;21.17;;;9.50;96.80;;;;;;5023721;28;20020;-69
2022/03/18 03:25:57;;;;;;;45.90;23.05;;;9.50;96.70;;;;;;5021845;28;20062;-69
2022/03/18 03:28:23;;;;;;;41.35;24.70;;;9.60;97.20;;;;;;5023456;28;20059;-69
2022/03/18 03:30:49;;;;;;;48.03;26.00;;;9.60;97.50;;;;;;5021512;28;20104;-69
2022/03/18 03:33:16;;;;;;;45.35;27.60;;;9.70;97.60;;;;;;5023701;28;20037;-69
2022/03/18 03:35:42;;;;;;;43.92;26.33;;;9.70;97.60;;;;;;5026662;28;20164;-69
2022/03/18 03:38:10;;;;;;;44.30;24.35;;;9.70;97.70;;;;;;5025249;28;20120;-69
2022/03/18 03:40:36;;;;;;;44.17;23.17;;;9.70;97.50;;;;;;5029017;28;20081;-69
2022/03/18 03:43:03;;;;;;;45.22;23.55;;;9.70;97.30;;;;;;5027518;28;20033;-69
2022/03/18 03:45:28;;;;;;;35.72;21.20;;;9.60;97.30;;;;;;5021381;28;20527;-69
2022/03/18 03:47:54;;;;;;;35.40;21.00;;;9.70;97.40;;;;;;5024469;28;20033;-69
2022/03/18 03:50:20;;;;;;;37.70;20.05;;;9.60;97.30;;;;;;5029146;28;20460;-69
2022/03/18 03:52:46;;;;;;;38.85;22.48;;;9.50;97.20;;;;;;5013400;28;20471;-69
2022/03/18 03:55:13;;;;;;;40.90;23.83;;;9.40;97.50;;;;;;5026615;28;20026;-69
2022/03/18 03:57:39;;;;;;;34.80;19.70;;;9.50;97.60;;;;;;5017685;28;20034;-69
2022/03/18 04:00:07;;;;;;;36.03;15.25;;;9.50;96.70;;;;;;5028813;28;20029;-60
2022/03/18 04:02:33;;;;;;;29.50;12.90;;;9.80;94.60;;;;;;5022490;28;20384;-68
2022/03/18 04:04:58;;;;;;;25.70;11.68;;;10.00;93.50;;;;;;5017830;28;20034;-68
2022/03/18 04:07:27;;;;;;;24.23;12.48;;;10.00;93.10;;;;;;5021175;28;20029;-68
2022/03/18 04:09:56;;;;;;;33.53;18.75;;;10.00;93.00;;;;;;5021689;28;20084;-68
2022/03/18 04:12:22;;;;;;;40.25;22.95;;;10.00;94.70;;;;;;5021416;28;20132;-68
2022/03/18 04:14:48;;;;;;;38.55;23.05;;;9.90;95.90;;;;;;5017299;28;20116;-68
2022/03/18 04:17:14;;;;;;;38.20;20.50;;;9.70;96.30;;;;;;5017862;28;20492;-68
2022/03/18 04:19:40;;;;;;;34.38;18.08;;;9.70;96.40;;;;;;5024839;28;20041;-68
2022/03/18 04:22:06;;;;;;;42.13;24.23;;;9.80;95.40;;;;;;5022301;28;20119;-68
2022/03/18 04:24:31;;;;;;;31.73;18.10;;;10.00;96.40;;;;;;5019147;28;20033;-69
2022/03/18 04:26:57;;;;;;;27.70;13.55;;;10.10;94.70;;;;;;5023977;28;20042;-68
2022/03/18 04:29:23;;;;;;;27.80;15.43;;;10.20;93.10;;;;;;5026811;28;20041;-68
2022/03/18 04:31:50;;;;;;;28.63;16.00;;;10.20;93.40;;;;;;5022136;28;20034;-68
2022/03/18 04:34:16;;;;;;;32.65;18.98;;;10.10;93.90;;;;;;5026565;28;20045;-68
2022/03/18 04:36:42;;;;;;;36.55;19.33;;;10.20;93.90;;;;;;5021085;28;20037;-68
2022/03/18 04:39:08;;;;;;;38.53;21.05;;;10.20;94.30;;;;;;5022682;28;20037;-68
2022/03/18 04:41:34;;;;;;;24.38;14.13;;;10.20;95.00;;;;;;5024679;28;20495;-67
2022/03/18 04:44:03;;;;;;;22.75;12.80;;;10.00;93.70;;;;;;5023215;28;20073;-68
2022/03/18 04:46:31;;;;;;;37.33;21.80;;;10.10;93.00;;;;;;5019867;28;20029;-68
2022/03/18 04:49:00;;;;;;;41.25;22.90;;;10.00;95.20;;;;;;5019895;28;20090;-68
2022/03/18 04:51:26;;;;;;;40.20;21.38;;;9.80;96.10;;;;;;5024891;28;20048;-68
2022/03/18 04:53:52;;;;;;;38.17;22.50;;;9.70;96.60;;;;;;5027359;28;20045;-68
2022/03/18 04:59:03;;;;;;;38.15;22.90;;;9.60;97.00;;;;;;5022882;28;20076;-68
2022/03/18 05:01:29;;;;;;;36.65;22.83;;;9.50;97.40;;;;;;5013936;28;20045;-68
2022/03/18 05:03:55;;;;;;;37.63;20.88;;;9.50;97.50;;;;;;5018426;28;20029;-68
2022/03/18 05:06:21;;;;;;;47.72;23.25;;;9.40;97.60;;;;;;5018053;28;20040;-69
2022/03/18 05:08:47;;;;;;;42.55;22.77;;;9.40;97.80;;;;;;5017091;28;20421;-68
2022/03/18 05:11:13;;;;;;;38.00;22.98;;;9.40;97.80;;;;;;5022529;28;20617;-68
2022/03/18 05:13:38;;;;;;;39.63;22.08;;;9.40;97.90;;;;;;5020077;28;20041;-68
2022/03/18 05:16:05;;;;;;;37.33;19.35;;;9.40;97.80;;;;;;5016849;28;20058;-68
2022/03/18 05:18:30;;;;;;;38.17;19.48;;;9.40;97.70;;;;;;5017483;28;20030;-68
2022/03/18 05:20:56;;;;;;;33.92;19.55;;;9.40;97.30;;;;;;5022466;28;20151;-68
2022/03/18 05:23:22;;;;;;;40.53;20.77;;;9.40;97.20;;;;;;5024322;28;20039;-68
2022/03/18 05:25:47;;;;;;;38.03;20.35;;;9.50;97.00;;;;;;5020295;28;20033;-68
2022/03/18 05:28:13;;;;;;;33.42;19.42;;;9.50;97.10;;;;;;5015285;28;20159;-68
2022/03/18 05:30:40;;;;;;;32.15;19.10;;;9.50;97.20;;;;;;5022329;28;20051;-68
2022/03/18 05:33:06;;;;;;;31.73;19.13;;;9.50;97.10;;;;;;5021879;28;20054;-68
2022/03/18 05:35:32;;;;;;;29.52;17.90;;;9.50;96.70;;;;;;5013175;28;20107;-68
2022/03/18 05:37:58;;;;;;;32.75;19.45;;;9.60;96.50;;;;;;5015444;28;20049;-68
2022/03/18 05:40:24;;;;;;;30.27;16.83;;;9.60;96.20;;;;;;5012422;28;20029;-68
2022/03/18 05:42:50;;;;;;;33.75;19.05;;;9.70;96.10;;;;;;5013319;28;20503;-68
2022/03/18 05:45:16;;;;;;;34.85;19.98;;;9.70;95.90;;;;;;5011145;28;20549;-68
2022/03/18 05:47:42;;;;;;;37.80;20.48;;;9.70;96.50;;;;;;5022193;28;20692;-68
2022/03/18 05:50:08;;;;;;;38.97;20.63;;;9.40;97.50;;;;;;5018868;28;20026;-68
2022/03/18 05:52:35;;;;;;;35.25;21.08;;;9.40;97.60;;;;;;5018342;28;20049;-68
2022/03/18 05:55:02;;;;;;;34.88;18.73;;;9.40;97.50;;;;;;5022092;28;20123;-68
2022/03/18 05:57:28;;;;;;;36.72;16.80;;;9.40;97.70;;;;;;5019268;28;20046;-67
2022/03/18 05:59:56;;;;;;;26.00;14.80;;;9.50;96.60;;;;;;5015037;28;20021;-68
2022/03/18 06:02:22;;;;;;;39.25;22.58;;;9.60;95.10;;;;;;5019852;28;20045;-68
2022/03/18 06:04:49;;;;;;;33.85;20.77;;;9.50;97.40;;;;;;5022259;28;20402;-68
2022/03/18 06:07:14;;;;;;;29.77;17.27;;;9.10;98.40;;;;;;5019280;28;20029;-68
2022/03/18 06:12:25;;;;;;;27.13;15.60;;;9.60;96.20;;;;;;5021204;28;20446;-68
2022/03/18 06:14:51;;;;;;;32.72;17.23;;;9.70;95.20;;;;;;5019572;28;20045;-68
2022/03/18 06:17:17;;;;;;;27.85;16.20;;;9.90;95.20;;;;;;5021394;28;20523;-68
2022/03/18 06:19:43;;;;;;;34.22;18.60;;;9.90;95.80;;;;;;5023557;28;20033;-68
2022/03/18 06:22:09;;;;;;;37.33;19.15;;;9.80;96.30;;;;;;5020191;28;20033;-68
2022/03/18 06:24:35;;;;;;;36.10;20.20;;;9.50;97.20;;;;;;5013264;28;20048;-68
2022/03/18 06:27:01;;;;;;;33.25;20.02;;;9.50;97.50;;;;;;5005924;28;20029;-68
2022/03/18 06:29:28;;;;;;;41.47;23.00;;;9.60;97.70;;;;;;5014172;28;20755;-69
2022/03/18 06:31:54;;;;;;;31.83;19.98;;;9.60;97.60;;;;;;5017996;28;20147;-68
2022/03/18 06:34:20;;;;;;;35.10;18.35;;;9.70;97.00;;;;;;5009234;28;20438;-68
2022/03/18 06:36:47;;;;;;;30.20;17.48;;;9.70;96.70;;;;;;5013662;28;20037;-69
2022/03/18 06:39:14;;;;;;;31.52;18.77;;;9.80;96.80;;;;;;5003377;28;21005;-69
2022/03/18 06:41:39;;;;;;;37.15;17.42;;;9.80;96.90;;;;;;5006092;28;20031;-69
2022/03/18 06:44:08;;;;;;;30.95;18.25;;;9.90;96.80;;;;;;5013772;28;20908;-69
2022/03/18 06:46:36;;;;;;;37.30;19.45;;;9.90;96.70;;;;;;5020285;28;20040;-69
2022/03/18 06:49:02;;;;;;;32.58;19.40;;;9.80;97.60;;;;;;5020070;28;20209;-67
2022/03/18 06:51:28;;;;;;;35.42;18.98;;;9.80;97.60;;;;;;5016494;28;20033;-67
2022/03/18 06:53:54;;;;;;;32.85;19.35;;;9.80;97.20;;;;;;5023270;28;20048;-71
2022/03/18 06:56:19;;;;;;;30.27;18.33;;;9.90;97.20;;;;;;5021917;28;20078;-68
2022/03/18 06:58:45;;;;;;;36.30;18.08;;;10.00;96.70;;;;;;5021192;28;20041;-68
2022/03/18 07:01:12;;;;;;;32.28;18.88;;;10.10;96.40;;;;;;5020129;28;20077;-69
2022/03/18 07:03:37;;;;;;;36.40;19.00;;;10.10;96.20;;;;;;5021442;28;20069;-68
2022/03/18 07:06:03;;;;;;;36.53;19.83;;;10.30;96.20;;;;;;5018073;28;20096;-68
2022/03/18 07:08:29;;;;;;;33.17;19.08;;;10.30;96.40;;;;;;5015852;28;20030;-68
2022/03/18 07:10:55;;;;;;;33.58;19.10;;;10.40;96.60;;;;;;5021980;28;20124;-68
2022/03/18 07:13:20;;;;;;;35.65;18.25;;;10.40;96.50;;;;;;5020489;28;20076;-68
2022/03/18 07:15:46;;;;;;;48.20;19.95;;;10.50;96.50;;;;;;5017133;28;20033;-68
2022/03/18 07:18:12;;;;;;;33.75;18.55;;;10.60;96.50;;;;;;5016244;28;20025;-68
2022/03/18 07:20:38;;;;;;;32.75;20.05;;;10.50;96.60;;;;;;5020041;28;20585;-68
2022/03/18 07:23:08;;;;;;;37.60;20.90;;;10.50;96.70;;;;;;5021103;28;20037;-69
2022/03/18 07:25:46;;;;;;;36.92;21.83;;;10.50;96.90;;;;;;5016862;28;20034;-69
2022/03/18 07:28:14;;;;;;;38.92;22.50;;;10.50;97.30;;;;;;5018505;28;20025;-68
2022/03/18 07:30:42;;;;;;;35.67;22.00;;;10.60;97.30;;;;;;5018603;28;20083;-68
2022/03/18 07:33:08;;;;;;;34.60;21.00;;;10.50;97.10;;;;;;5008524;28;20037;-69
2022/03/18 07:35:35;;;;;;;37.20;20.88;;;10.50;97.30;;;;;;5004283;28;20407;-68
2022/03/18 07:38:02;;;;;;;37.47;21.45;;;10.60;97.30;;;;;;5018564;28;20149;-70
2022/03/18 07:40:28;;;;;;;38.33;22.48;;;10.60;97.30;;;;;;5018324;28;20545;-68
2022/03/18 07:42:58;;;;;;;34.70;22.45;;;10.60;97.10;;;;;;5013435;28;20046;-68
2022/03/18 07:45:26;;;;;;;41.22;22.80;;;10.70;96.90;;;;;;5020071;28;20092;-68
2022/03/18 07:47:53;;;;;;;35.25;21.60;;;10.70;97.00;;;;;;5017644;28;20033;-69
2022/03/18 07:50:20;;;;;;;35.83;22.52;;;10.70;97.20;;;;;;5015445;28;20415;-68
2022/03/18 07:52:50;;;;;;;34.17;20.30;;;10.70;97.20;;;;;;5015198;28;20119;-69
2022/03/18 07:55:18;;;;;;;33.75;19.95;;;10.70;97.00;;;;;;5023880;28;20034;-68
2022/03/18 07:57:43;;;;;;;41.33;20.95;;;10.70;97.00;;;;;;5025930;28;20091;-68
2022/03/18 08:00:11;;;;;;;40.58;22.85;;;10.70;96.60;;;;;;5027605;28;20502;-68
2022/03/18 08:02:38;;;;;;;39.40;21.65;;;10.80;96.60;;;;;;5025295;28;20029;-68
2022/03/18 08:05:04;;;;;;;36.10;22.13;;;10.90;96.70;;;;;;5023443;28;20120;-69
2022/03/18 08:07:30;;;;;;;37.00;22.60;;;10.90;97.00;;;;;;5022293;28;20364;-69
2022/03/18 08:09:56;;;;;;;39.63;22.65;;;11.00;97.30;;;;;;5023462;28;20037;-68
2022/03/18 08:12:21;;;;;;;37.97;23.38;;;11.00;97.30;;;;;;5023335;28;20116;-68
2022/03/18 08:14:47;;;;;;;42.83;23.40;;;11.00;96.90;;;;;;5024524;28;20118;-68
2022/03/18 08:17:13;;;;;;;46.85;24.75;;;11.10;97.10;;;;;;5024674;28;20034;-68
2022/03/18 08:19:38;;;;;;;42.88;26.27;;;11.00;97.30;;;;;;5024588;28;20029;-68
2022/03/18 08:22:05;;;;;;;45.95;24.90;;;11.10;97.40;;;;;;5022435;28;20030;-68
2022/03/18 08:24:31;;;;;;;47.78;24.77;;;11.10;97.40;;;;;;5020043;28;20119;-69
2022/03/18 08:26:57;;;;;;;54.92;27.52;;;11.10;97.30;;;;;;5021303;28;20452;-68
2022/03/18 08:29:23;;;;;;;42.97;24.67;;;11.10;97.20;;;;;;5022959;28;20045;-69
2022/03/18 08:31:48;;;;;;;48.67;27.10;;;11.20;97.50;;;;;;5020921;28;20635;-69
2022/03/18 08:34:15;;;;;;;49.40;26.17;;;11.00;97.50;;;;;;5025077;28;20033;-68
2022/03/18 08:36:41;;;;;;;47.55;24.92;;;11.10;97.20;;;;;;5023541;28;20044;-69
2022/03/18 08:39:06;;;;;;;44.40;24.42;;;11.20;97.50;;;;;;5019809;28;20056;-69
2022/03/18 08:41:32;;;;;;;44.83;26.02;;;11.20;97.10;;;;;;5011836;28;20434;-69
2022/03/18 08:43:58;;;;;;;53.53;27.30;;;11.20;97.20;;;;;;5011572;28;20115;-69
2022/03/18 08:46:23;;;;;;;51.75;25.08;;;11.20;97.40;;;;;;5005726;28;20623;-69
2022/03/18 08:48:49;;;;;;;47.40;25.90;;;11.30;97.00;;;;;;5022225;28;20038;-69
2022/03/18 08:51:16;;;;;;;56.22;25.98;;;11.20;96.90;;;;;;5012378;28;20026;-69
2022/03/18 08:53:42;;;;;;;47.88;24.20;;;11.20;96.80;;;;;;5017140;28;20117;-68
2022/03/18 08:56:08;;;;;;;46.50;26.52;;;11.40;96.90;;;;;;5022021;28;20083;-70
2022/03/18 08:58:33;;;;;;;42.33;24.95;;;11.40;96.70;;;;;;5021229;28;20605;-69
2022/03/18 09:00:59;;;;;;;38.30;24.15;;;11.50;96.30;;;;;;5015856;28;20041;-68
2022/03/18 09:03:25;;;;;;;48.45;24.88;;;11.60;96.40;;;;;;5024755;28;20077;-68
2022/03/18 09:05:51;;;;;;;46.03;24.25;;;11.70;96.00;;;;;;5022745;28;20104;-68
2022/03/18 09:08:18;;;;;;;39.85;23.67;;;11.90;96.30;;;;;;5021192;28;20029;-69
2022/03/18 09:10:44;;;;;;;38.50;22.70;;;11.90;95.60;;;;;;5022673;28;20030;-68
2022/03/18 09:13:10;;;;;;;44.75;25.00;;;12.00;95.40;;;;;;5020767;28;20064;-69
2022/03/18 09:15:36;;;;;;;41.75;23.85;;;12.20;95.60;;;;;;5020896;28;20439;-69
2022/03/18 09:18:01;;;;;;;39.58;23.20;;;12.30;95.20;;;;;;5017338;28;20034;-69
2022/03/18 09:20:27;;;;;;;50.50;23.75;;;12.40;94.90;;;;;;5025501;28;20029;-68
2022/03/18 09:22:53;;;;;;;41.92;23.00;;;12.50;94.90;;;;;;5025042;28;20098;-69
2022/03/18 09:25:20;;;;;;;35.92;22.75;;;12.70;94.20;;;;;;5023860;28;20075;-69
2022/03/18 09:27:45;;;;;;;38.83;23.15;;;12.70;93.80;;;;;;5023317;28;20033;-68
2022/03/18 09:30:13;;;;;;;46.38;22.60;;;12.80;93.80;;;;;;5020238;28;20030;-69
2022/03/18 09:32:42;;;;;;;31.52;20.05;;;13.00;93.70;;;;;;5024493;28;20052;-69
2022/03/18 09:35:14;;;;;;;36.15;19.55;;;13.10;92.90;;;;;;5025018;28;20048;-69
2022/03/18 09:37:40;;;;;;;36.50;20.85;;;13.20;92.50;;;;;;5025619;28;20112;-69
2022/03/18 09:40:08;;;;;;;36.03;21.77;;;13.20;92.70;;;;;;5026133;28;20156;-69
2022/03/18 09:42:35;;;;;;;36.22;21.00;;;13.40;92.60;;;;;;5018961;28;20399;-69
2022/03/18 09:45:01;;;;;;;36.22;19.95;;;13.40;92.50;;;;;;5019240;28;20049;-69
2022/03/18 09:47:28;;;;;;;33.38;19.42;;;13.50;91.90;;;;;;5023822;28;20043;-69
2022/03/18 09:49:53;;;;;;;43.10;22.40;;;13.60;92.00;;;;;;5022374;28;20041;-69
2022/03/18 09:52:20;;;;;;;35.47;19.15;;;13.50;91.70;;;;;;5017160;28;20041;-69
2022/03/18 09:54:46;;;;;;;37.88;21.73;;;13.80;92.00;;;;;;5026866;28;20100;-68
2022/03/18 09:57:12;;;;;;;31.40;20.38;;;13.70;91.70;;;;;;5024836;28;20450;-69
2022/03/18 09:59:38;;;;;;;34.25;21.27;;;13.60;91.40;;;;;;5022004;28;20461;-69
2022/03/18 10:02:22;;;;;;;46.50;21.23;;;13.60;91.60;;;;;;5019117;28;20048;-69
2022/03/18 10:04:52;;;;;;;43.88;19.92;;;13.60;91.60;;;;;;5025808;28;20033;-69
2022/03/18 10:07:18;;;;;;;32.30;19.75;;;13.40;91.20;;;;;;5019658;28;20030;-68
2022/03/18 10:09:44;;;;;;;39.00;20.65;;;13.40;91.50;;;;;;5022060;28;20056;-69
2022/03/18 10:12:28;;;;;;;43.40;21.88;;;13.60;91.50;;;;;;5021693;28;20052;-69
2022/03/18 10:15:15;;;;;;;37.92;20.65;;;13.90;91.50;;;;;;5024433;28;20037;-69
2022/03/18 10:17:52;;;;;;;34.00;20.88;;;13.90;91.10;;;;;;5020988;28;20030;-69
2022/03/18 10:20:48;;;;;;;38.13;20.77;;;14.00;90.70;;;;;;5021722;28;20044;-69
2022/03/18 10:23:16;;;;;;;35.75;22.23;;;14.10;91.20;;;;;;5014713;28;20533;-68
2022/03/18 10:25:52;;;;;;;46.05;22.95;;;14.00;91.20;;;;;;5017851;28;20025;-69
2022/03/18 10:28:37;;;;;;;38.70;20.80;;;14.10;91.20;;;;;;5026396;28;20455;-69
2022/03/18 10:31:15;;;;;;;38.25;20.92;;;14.20;90.80;;;;;;5022990;28;20160;-69
2022/03/18 10:39:39;;;;;;;32.72;19.65;;;14.60;90.30;;;;;;5021768;28;20088;-69
2022/03/18 10:42:10;;;;;;;35.22;21.00;;;14.50;90.10;;;;;;5021238;28;20025;-69
2022/03/18 10:44:54;;;;;;;35.70;20.23;;;14.30;90.40;;;;;;5026047;28;20499;-69
2022/03/18 10:47:26;;;;;;;41.13;20.30;;;14.50;90.20;;;;;;5017775;28;20040;-69
2022/03/18 10:49:54;;;;;;;40.92;20.13;;;14.60;90.10;;;;;;5023448;28;20037;-69
2022/03/18 10:52:23;;;;;;;34.28;20.45;;;14.60;90.10;;;;;;5022855;28;20048;-69
2022/03/18 10:54:50;;;;;;;37.03;20.45;;;14.70;89.60;;;;;;5022245;28;20068;-69
2022/03/18 10:57:17;;;;;;;40.40;21.38;;;14.70;90.30;;;;;;5023814;28;20361;-69
2022/03/18 10:59:43;;;;;;;36.95;18.75;;;14.80;90.20;;;;;;5019164;28;20041;-70
2022/03/18 11:02:14;;;;;;;26.42;16.42;;;14.70;89.30;;;;;;5016122;28;20042;-69
2022/03/18 11:04:41;;;;;;;30.50;17.48;;;14.70;90.00;;;;;;5018672;28;20037;-69
2022/03/18 11:12:40;;;;;;;42.67;21.73;;;14.80;88.10;;;;;;5024112;28;20080;-69
2022/03/18 11:15:07;;;;;;;31.05;16.52;;;14.80;88.30;;;;;;5020127;28;20497;-69
2022/03/18 11:17:33;;;;;;;36.85;17.40;;;14.90;87.90;;;;;;5020208;28;20080;-69
2022/03/18 11:20:01;;;;;;;35.55;17.48;;;15.00;87.80;;;;;;5019967;28;20033;-69
2022/03/18 11:22:28;;;;;;;43.67;17.33;;;15.20;87.00;;;;;;5020687;28;20041;-69
2022/03/18 11:24:55;;;;;;;33.53;17.00;;;15.30;87.00;;;;;;5020895;28;20080;-70
2022/03/18 11:27:21;;;;;;;35.78;16.55;;;15.10;86.40;;;;;;5021284;28;20030;-69
2022/03/18 11:29:46;;;;;;;27.05;17.27;;;15.40;87.50;;;;;;5022322;28;20029;-70
2022/03/18 11:32:12;;;;;;;28.55;16.88;;;15.50;86.30;;;;;;5014856;28;20542;-69
2022/03/18 11:34:59;;;;;;;36.88;18.67;;;15.60;85.80;;;;;;5019139;28;20032;-70
2022/03/18 11:37:25;;;;;;;30.25;18.10;;;15.80;87.00;;;;;;5021766;28;20115;-69
2022/03/18 11:40:11;;;;;;;32.83;20.00;;;15.80;86.20;;;;;;5021385;28;20033;-69
2022/03/18 11:42:37;;;;;;;34.90;20.98;;;15.90;87.00;;;;;;5008471;28;20033;-70
2022/03/18 11:45:03;;;;;;;38.30;20.45;;;16.00;88.20;;;;;;5010945;28;20091;-70
2022/03/18 11:47:29;;;;;;;36.00;20.85;;;16.10;86.80;;;;;;5017749;28;20030;-69
2022/03/18 11:49:55;;;;;;;31.77;19.30;;;16.10;87.50;;;;;;5010657;28;20037;-70
2022/03/18 11:52:21;;;;;;;32.42;20.70;;;16.20;87.00;;;;;;5016187;28;20041;-70
2022/03/18 11:54:51;;;;;;;34.92;19.10;;;16.20;86.60;;;;;;5003956;28;20029;-70
2022/03/18 11:57:46;;;;;;;25.90;18.38;;;16.20;85.40;;;;;;5020601;28;20460;-70
2022/03/18 12:00:31;;;;;;;35.28;17.38;;;16.30;85.70;;;;;;5010577;28;20041;-70
2022/03/18 12:02:59;;;;;;;29.25;18.05;;;16.60;85.30;;;;;;5012974;28;20030;-70
2022/03/18 12:05:29;;;;;;;28.88;16.85;;;16.60;84.60;;;;;;5013411;28;20447;-70
2022/03/18 12:07:57;;;;;;;25.00;15.57;;;16.50;84.20;;;;;;5016878;28;20612;-70
2022/03/18 12:10:34;;;;;;;34.55;16.42;;;16.60;83.30;;;;;;5020548;28;20927;-69
2022/03/18 12:13:03;;;;;;;35.45;15.15;;;16.70;83.60;;;;;;5020795;28;20041;-69
2022/03/18 12:15:30;;;;;;;33.33;14.68;;;16.80;82.70;;;;;;5026192;28;20068;-69
2022/03/18 12:17:57;;;;;;;29.88;14.48;;;16.80;82.30;;;;;;5022807;28;20556;-70
2022/03/18 12:20:31;;;;;;;30.65;15.70;;;16.80;81.20;;;;;;5023601;28;20037;-69
2022/03/18 12:23:00;;;;;;;29.58;14.82;;;16.70;81.30;;;;;;5021189;28;20029;-70
2022/03/18 12:25:26;;;;;;;29.40;14.65;;;16.80;80.90;;;;;;5027359;28;20379;-69
2022/03/18 12:27:53;;;;;;;37.30;14.02;;;16.90;81.80;;;;;;5028433;28;20533;-70
2022/03/18 12:30:24;;;;;;;27.50;13.43;;;16.90;81.70;;;;;;5022815;28;20030;-69
2022/03/18 12:32:58;;;;;;;26.67;13.05;;;17.10;81.50;;;;;;5024486;28;20166;-71
2022/03/18 12:35:44;;;;;;;31.45;13.00;;;17.20;80.00;;;;;;5018401;28;20084;-71
2022/03/18 12:38:18;;;;;;;27.70;11.43;;;17.20;79.90;;;;;;5003624;28;20072;-71
2022/03/18 12:40:58;;;;;;;30.13;12.25;;;17.20;80.50;;;;;;5017960;28;20080;-71
2022/03/18 12:43:26;;;;;;;25.83;12.60;;;17.20;79.90;;;;;;5017952;28;20034;-71
2022/03/18 12:45:52;;;;;;;36.47;13.25;;;17.10;79.40;;;;;;5024385;28;20348;-71
2022/03/18 12:48:20;;;;;;;30.05;11.75;;;17.00;78.80;;;;;;5023864;28;20057;-71
2022/03/18 12:50:50;;;;;;;25.70;12.07;;;17.00;78.60;;;;;;5023600;28;20464;-71
2022/03/18 12:53:27;;;;;;;32.15;10.70;;;17.00;78.30;;;;;;5020979;28;20077;-71
2022/03/18 12:55:58;;;;;;;23.35;11.00;;;17.00;78.40;;;;;;5023539;28;20108;-71
2022/03/18 12:58:25;;;;;;;27.08;12.45;;;17.20;78.40;;;;;;5021118;28;20040;-71